createdAt,value
2022-08-21T00:00:18.027Z,100.00
2022-08-21T00:02:54.370Z,100.00
2022-08-21T00:05:21.902Z,100.00
2022-08-21T00:07:48.990Z,100.00
2022-08-21T00:10:17.071Z,100.00
2022-08-21T00:12:45.157Z,100.00
2022-08-21T00:15:16.746Z,100.00
2022-08-21T00:17:43.919Z,100.00
2022-08-21T00:20:13.586Z,100.00
2022-08-21T00:22:41.194Z,100.00
2022-08-21T00:25:09.540Z,100.00
2022-08-21T00:27:37.455Z,100.00
2022-08-21T00:30:07.004Z,100.00
2022-08-21T00:32:34.725Z,100.00
2022-08-21T00:35:01.702Z,100.00
2022-08-21T00:37:28.732Z,100.00
2022-08-21T00:39:57.764Z,100.00
2022-08-21T00:42:24.827Z,100.00
2022-08-21T00:44:52.024Z,100.00
2022-08-21T00:47:19.779Z,100.00
2022-08-21T00:49:46.800Z,100.00
2022-08-21T00:52:22.004Z,100.00
2022-08-21T00:54:51.043Z,100.00
2022-08-21T00:57:26.948Z,100.00
2022-08-21T00:59:58.417Z,100.00
2022-08-21T01:02:25.809Z,100.00
2022-08-21T01:04:52.833Z,100.00
2022-08-21T01:07:21.117Z,100.00
2022-08-21T01:09:50.018Z,100.00
2022-08-21T01:12:17.071Z,100.00
2022-08-21T01:14:44.873Z,100.00
2022-08-21T01:17:14.662Z,100.00
2022-08-21T01:19:41.783Z,100.00
2022-08-21T01:22:08.883Z,100.00
2022-08-21T01:24:35.894Z,100.00
2022-08-21T01:27:03.811Z,100.00
2022-08-21T01:29:37.941Z,100.00
2022-08-21T01:32:09.431Z,100.00
2022-08-21T01:34:38.963Z,100.00
2022-08-21T01:37:06.414Z,100.00
2022-08-21T01:39:33.897Z,100.00
2022-08-21T01:42:00.975Z,100.00
2022-08-21T01:44:28.118Z,100.00
2022-08-21T01:46:55.748Z,100.00
2022-08-21T01:49:23.071Z,100.00
2022-08-21T01:51:50.037Z,100.00
2022-08-21T01:54:16.948Z,100.00
2022-08-21T01:56:47.254Z,100.00
2022-08-21T01:59:14.638Z,100.00
2022-08-21T02:01:41.962Z,100.00
2022-08-21T02:04:10.507Z,100.00
2022-08-21T02:06:37.685Z,100.00
2022-08-21T02:09:06.771Z,100.00
2022-08-21T02:11:34.962Z,100.00
2022-08-21T02:14:02.827Z,100.00
2022-08-21T02:16:29.819Z,100.00
2022-08-21T02:19:00.456Z,100.00
2022-08-21T02:21:27.411Z,100.00
2022-08-21T02:23:54.350Z,100.00
2022-08-21T02:26:21.345Z,100.00
2022-08-21T02:28:49.132Z,100.00
2022-08-21T02:31:16.075Z,100.00
2022-08-21T02:33:43.029Z,100.00
2022-08-21T02:36:12.517Z,100.00
2022-08-21T02:38:41.079Z,100.00
2022-08-21T02:41:13.669Z,100.00
2022-08-21T02:43:40.739Z,100.00
2022-08-21T02:46:09.128Z,100.00
2022-08-21T02:48:37.892Z,100.00
2022-08-21T02:51:11.010Z,100.00
2022-08-21T02:53:38.167Z,100.00
2022-08-21T02:56:09.566Z,100.00
2022-08-21T02:58:39.790Z,100.00
2022-08-21T03:01:10.592Z,100.00
2022-08-21T03:03:40.290Z,100.00
2022-08-21T03:06:09.310Z,100.00
2022-08-21T03:08:36.816Z,100.00
2022-08-21T03:11:04.657Z,100.00
2022-08-21T03:13:33.858Z,100.00
2022-08-21T03:16:01.016Z,100.00
2022-08-21T03:18:28.002Z,100.00
2022-08-21T03:20:55.214Z,100.00
2022-08-21T03:23:23.862Z,100.00
2022-08-21T03:25:52.248Z,100.00
2022-08-21T03:28:23.175Z,100.00
2022-08-21T03:30:52.305Z,100.00
2022-08-21T03:33:23.105Z,100.00
2022-08-21T03:36:07.009Z,100.00
2022-08-21T03:38:36.034Z,100.00
2022-08-21T03:41:04.396Z,100.00
2022-08-21T03:43:32.667Z,100.00
2022-08-21T03:46:02.708Z,100.00
2022-08-21T03:48:30.092Z,100.00
2022-08-21T03:50:57.728Z,100.00
2022-08-21T03:53:25.637Z,100.00
2022-08-21T03:55:53.726Z,100.00
2022-08-21T03:58:24.020Z,100.00
2022-08-21T04:00:53.036Z,100.00
2022-08-21T04:03:20.989Z,100.00
2022-08-21T04:05:48.155Z,100.00
2022-08-21T04:08:18.470Z,100.00
2022-08-21T04:10:47.888Z,100.00
2022-08-21T04:13:15.978Z,100.00
2022-08-21T04:15:43.665Z,100.00
2022-08-21T04:18:11.067Z,100.00
2022-08-21T04:20:38.316Z,100.00
2022-08-21T04:23:05.250Z,100.00
2022-08-21T04:25:32.847Z,100.00
2022-08-21T04:27:59.844Z,100.00
2022-08-21T04:30:28.064Z,100.00
2022-08-21T04:32:57.560Z,100.00
2022-08-21T04:35:26.872Z,100.00
2022-08-21T04:37:54.175Z,100.00
2022-08-21T04:40:23.203Z,100.00
2022-08-21T04:42:53.379Z,100.00
2022-08-21T04:45:27.218Z,100.00
2022-08-21T04:47:56.845Z,100.00
2022-08-21T04:50:29.446Z,100.00
2022-08-21T04:53:06.407Z,100.00
2022-08-21T04:55:33.690Z,100.00
2022-08-21T04:58:01.284Z,100.00
2022-08-21T05:00:28.611Z,100.00
2022-08-21T05:03:00.420Z,100.00
2022-08-21T05:05:30.328Z,100.00
2022-08-21T05:08:00.248Z,100.00
2022-08-21T05:10:27.747Z,100.00
2022-08-21T05:12:55.835Z,100.00
2022-08-21T05:15:22.819Z,100.00
2022-08-21T05:17:52.419Z,100.00
2022-08-21T05:20:24.396Z,100.00
2022-08-21T05:22:51.537Z,100.00
2022-08-21T05:25:18.668Z,100.00
2022-08-21T05:27:49.377Z,100.00
2022-08-21T05:30:20.585Z,100.00
2022-08-21T05:32:48.684Z,100.00
2022-08-21T05:35:16.259Z,100.00
2022-08-21T05:37:43.236Z,100.00
2022-08-21T05:40:21.296Z,100.00
2022-08-21T05:42:54.450Z,100.00
2022-08-21T05:45:42.122Z,100.00
2022-08-21T05:48:17.739Z,100.00
2022-08-21T05:50:46.256Z,100.00
2022-08-21T05:53:13.843Z,100.00
2022-08-21T05:55:45.738Z,100.00
2022-08-21T05:58:15.861Z,100.00
2022-08-21T06:00:43.546Z,100.00
2022-08-21T06:03:17.982Z,100.00
2022-08-21T06:05:46.719Z,100.00
2022-08-21T06:08:15.194Z,100.00
2022-08-21T06:10:42.313Z,100.00
2022-08-21T06:13:09.360Z,100.00
2022-08-21T06:15:36.300Z,100.00
2022-08-21T06:18:03.358Z,100.00
2022-08-21T06:20:30.683Z,100.00
2022-08-21T06:22:57.695Z,100.00
2022-08-21T06:25:25.638Z,100.00
2022-08-21T06:27:52.825Z,100.00
2022-08-21T06:30:20.373Z,100.00
2022-08-21T06:32:47.320Z,100.00
2022-08-21T06:35:14.572Z,100.00
2022-08-21T06:37:41.486Z,100.00
2022-08-21T06:40:12.470Z,100.00
2022-08-21T06:42:41.360Z,100.00
2022-08-21T06:45:10.687Z,100.00
2022-08-21T06:47:38.048Z,100.00
2022-08-21T06:50:08.576Z,100.00
2022-08-21T06:52:37.358Z,100.00
2022-08-21T06:55:07.484Z,100.00
2022-08-21T06:57:34.700Z,100.00
2022-08-21T07:00:02.208Z,100.00
2022-08-21T07:02:29.136Z,100.00
2022-08-21T07:04:56.090Z,100.00
2022-08-21T07:07:23.068Z,100.00
2022-08-21T07:09:50.009Z,100.00
2022-08-21T07:12:17.027Z,100.00
2022-08-21T07:14:44.016Z,100.00
2022-08-21T07:17:11.027Z,100.00
2022-08-21T07:19:37.954Z,100.00
2022-08-21T07:22:05.375Z,100.00
2022-08-21T07:24:32.380Z,100.00
2022-08-21T07:26:59.307Z,100.00
2022-08-21T07:29:26.308Z,100.00
2022-08-21T07:31:53.314Z,100.00
2022-08-21T07:34:20.307Z,100.00
2022-08-21T07:36:47.694Z,100.00
2022-08-21T07:39:16.391Z,100.00
2022-08-21T07:41:43.340Z,100.00
2022-08-21T07:44:10.280Z,100.00
2022-08-21T07:46:39.658Z,100.00
2022-08-21T07:49:06.584Z,100.00
2022-08-21T07:51:34.811Z,100.00
2022-08-21T07:54:02.136Z,100.00
2022-08-21T07:56:31.693Z,100.00
2022-08-21T07:58:58.924Z,100.00
2022-08-21T08:01:26.175Z,100.00
2022-08-21T08:03:53.310Z,100.00
2022-08-21T08:06:20.607Z,100.00
2022-08-21T08:08:47.656Z,100.00
2022-08-21T08:11:17.736Z,100.00
2022-08-21T08:13:48.048Z,100.00
2022-08-21T08:16:15.922Z,100.00
2022-08-21T08:18:43.321Z,100.00
2022-08-21T08:21:11.424Z,100.00
2022-08-21T08:23:38.529Z,100.00
2022-08-21T08:26:06.030Z,100.00
2022-08-21T08:28:34.051Z,100.00
2022-08-21T08:31:02.006Z,100.00
2022-08-21T08:33:29.158Z,100.00
2022-08-21T08:35:56.780Z,100.00
2022-08-21T08:38:26.080Z,100.00
2022-08-21T08:41:02.577Z,100.00
2022-08-21T08:43:31.190Z,100.00
2022-08-21T08:46:02.944Z,100.00
2022-08-21T08:49:01.080Z,100.00
2022-08-21T08:51:38.835Z,100.00
2022-08-21T08:54:10.444Z,100.00
2022-08-21T08:56:37.600Z,100.00
2022-08-21T08:59:14.885Z,100.00
2022-08-21T09:01:43.051Z,100.00
2022-08-21T09:04:13.474Z,100.00
2022-08-21T09:07:05.250Z,100.00
2022-08-21T09:09:48.440Z,100.00
2022-08-21T09:12:34.275Z,100.00
2022-08-21T09:15:35.023Z,100.00
2022-08-21T09:18:07.650Z,100.00
2022-08-21T09:20:41.382Z,100.00
2022-08-21T09:23:23.188Z,100.00
2022-08-21T09:26:11.320Z,100.00
2022-08-21T09:28:38.459Z,100.00
2022-08-21T09:31:19.905Z,100.00
2022-08-21T09:33:46.988Z,100.00
2022-08-21T09:36:25.968Z,100.00
2022-08-21T09:38:56.185Z,100.00
2022-08-21T09:41:32.673Z,100.00
2022-08-21T09:43:59.824Z,100.00
2022-08-21T10:18:02.728Z,55.87
2022-08-21T10:20:45.323Z,53.39
2022-08-21T10:23:36.946Z,52.13
2022-08-21T10:26:30.158Z,50.24
2022-08-21T10:29:02.702Z,49.37
2022-08-21T10:31:41.905Z,48.17
2022-08-21T10:34:52.360Z,48.51
2022-08-21T10:37:33.515Z,49.90
2022-08-21T10:40:23.298Z,49.65
2022-08-21T10:43:08.850Z,49.93
2022-08-21T10:46:08.257Z,48.16
2022-08-21T10:48:47.879Z,49.12
2022-08-21T10:51:30.609Z,49.20
2022-08-21T10:54:04.689Z,49.93
2022-08-21T10:56:36.920Z,50.50
2022-08-21T10:59:19.449Z,50.24
2022-08-21T11:01:59.350Z,50.63
2022-08-21T11:04:49.317Z,52.41
2022-08-21T11:07:49.610Z,52.81
2022-08-21T11:10:31.137Z,53.62
2022-08-21T11:13:22.010Z,54.90
2022-08-21T11:16:06.319Z,56.31
2022-08-21T11:18:40.572Z,55.29
2022-08-21T11:21:21.368Z,56.17
2022-08-21T11:24:16.451Z,55.99
2022-08-21T11:27:00.762Z,56.28
2022-08-21T11:29:37.611Z,56.95
2022-08-21T11:32:41.245Z,58.55
2022-08-21T11:35:17.005Z,58.35
2022-08-21T11:38:00.148Z,58.09
2022-08-21T11:40:54.357Z,56.94
2022-08-21T11:43:39.340Z,58.24
2022-08-21T11:46:36.959Z,59.99
2022-08-21T11:49:24.207Z,60.96
2022-08-21T11:52:20.368Z,59.42
2022-08-21T11:55:08.593Z,59.50
2022-08-21T11:58:02.632Z,58.61
2022-08-21T12:00:35.398Z,57.32
2022-08-21T12:03:37.540Z,55.63
2022-08-21T12:06:11.909Z,57.04
2022-08-21T12:08:42.004Z,56.66
2022-08-21T12:11:18.562Z,55.42
2022-08-21T12:13:59.988Z,55.13
2022-08-21T12:16:38.463Z,54.18
2022-08-21T12:19:10.133Z,56.34
2022-08-21T12:21:51.915Z,55.54
2022-08-21T12:24:37.282Z,56.03
2022-08-21T12:27:31.207Z,56.23
2022-08-21T12:30:02.779Z,57.26
2022-08-21T12:32:43.811Z,56.01
2022-08-21T12:35:24.937Z,54.87
2022-08-21T12:38:28.952Z,54.77
2022-08-21T12:41:05.405Z,55.56
2022-08-21T12:43:41.417Z,54.91
2022-08-21T12:46:08.464Z,53.16
2022-08-21T12:48:41.241Z,54.94
2022-08-21T12:51:19.473Z,55.30
2022-08-21T12:53:53.742Z,54.71
2022-08-21T12:56:29.300Z,55.13
2022-08-21T12:59:06.360Z,54.93
2022-08-21T13:01:41.493Z,55.64
2022-08-21T13:04:13.426Z,57.38
2022-08-21T13:06:47.282Z,58.86
2022-08-21T13:09:18.405Z,58.79
2022-08-21T13:11:48.387Z,59.59
2022-08-21T13:14:26.849Z,59.69
2022-08-21T13:16:57.071Z,59.84
2022-08-21T13:19:25.019Z,61.40
2022-08-21T13:21:53.693Z,60.79
2022-08-21T13:24:41.713Z,61.06
2022-08-21T13:27:20.414Z,60.17
2022-08-21T13:29:54.177Z,60.92
2022-08-21T13:32:26.539Z,62.93
2022-08-21T13:34:54.367Z,63.91
2022-08-21T13:37:24.371Z,63.50
2022-08-21T13:39:53.342Z,60.86
2022-08-21T13:42:20.847Z,61.99
2022-08-21T13:44:49.086Z,62.37
2022-08-21T13:47:18.196Z,62.38
2022-08-21T13:49:48.849Z,63.25
2022-08-21T13:52:20.441Z,62.70
2022-08-21T13:54:58.449Z,62.95
2022-08-21T13:57:35.808Z,62.52
2022-08-21T14:00:30.283Z,62.43
2022-08-21T14:03:07.272Z,63.71
2022-08-21T14:05:38.289Z,63.78
2022-08-21T14:08:30.504Z,64.88
2022-08-21T14:10:58.700Z,66.59
2022-08-21T14:13:45.293Z,67.73
2022-08-21T14:16:24.407Z,64.09
2022-08-21T14:19:11.049Z,61.94
2022-08-21T14:21:42.468Z,63.91
2022-08-21T14:24:13.642Z,63.81
2022-08-21T14:26:49.942Z,65.03
2022-08-21T14:29:19.971Z,67.65
2022-08-21T14:31:58.970Z,68.58
2022-08-21T14:34:30.819Z,66.54
2022-08-21T14:37:01.435Z,66.92
2022-08-21T14:39:28.343Z,66.75
2022-08-21T14:41:56.179Z,67.98
2022-08-21T14:44:23.161Z,66.63
2022-08-21T14:46:55.546Z,66.51
2022-08-21T14:49:27.598Z,68.43
2022-08-21T14:51:58.731Z,67.82
2022-08-21T14:54:32.257Z,68.01
2022-08-21T14:57:04.722Z,70.92
2022-08-21T14:59:33.878Z,73.36
2022-08-21T15:02:01.757Z,71.85
2022-08-21T15:04:28.827Z,71.76
2022-08-21T15:06:55.859Z,71.40
2022-08-21T15:09:23.302Z,72.01
2022-08-21T15:11:50.906Z,73.54
2022-08-21T15:14:27.669Z,75.04
2022-08-21T15:16:54.886Z,76.69
2022-08-21T15:19:22.310Z,75.97
2022-08-21T15:21:49.612Z,74.76
2022-08-21T15:24:16.823Z,74.10
2022-08-21T15:26:45.036Z,73.76
2022-08-21T15:29:12.080Z,74.10
2022-08-21T15:31:53.375Z,73.54
2022-08-21T15:34:21.504Z,74.19
2022-08-21T15:36:52.440Z,74.92
2022-08-21T15:39:24.741Z,76.79
2022-08-21T15:41:57.033Z,78.15
2022-08-21T15:44:26.256Z,78.79
2022-08-21T15:46:53.188Z,78.75
2022-08-21T15:49:20.172Z,78.13
2022-08-21T15:51:47.200Z,78.53
2022-08-21T15:54:14.247Z,79.70
2022-08-21T15:56:44.143Z,81.28
2022-08-21T15:59:23.276Z,82.96
2022-08-21T16:01:52.423Z,83.82
2022-08-21T16:04:24.696Z,84.92
2022-08-21T16:06:55.593Z,85.88
2022-08-21T16:09:25.204Z,84.46
2022-08-21T16:11:52.473Z,84.44
2022-08-21T16:14:19.413Z,84.42
2022-08-21T16:16:46.853Z,85.04
2022-08-21T16:19:14.783Z,86.51
2022-08-21T16:21:42.441Z,87.31
2022-08-21T16:24:09.368Z,87.88
2022-08-21T16:26:36.421Z,90.29
2022-08-21T16:29:05.144Z,90.14
2022-08-21T16:31:33.696Z,91.42
2022-08-21T16:34:01.795Z,92.99
2022-08-21T16:36:28.886Z,92.53
2022-08-21T16:38:57.208Z,93.03
2022-08-21T16:41:27.249Z,93.83
2022-08-21T16:43:54.426Z,94.23
2022-08-21T16:46:22.618Z,94.14
2022-08-21T16:48:50.287Z,94.38
2022-08-21T16:51:18.083Z,95.23
2022-08-21T16:53:45.321Z,95.18
2022-08-21T16:56:14.474Z,95.34
2022-08-21T16:58:44.758Z,94.98
2022-08-21T17:01:15.330Z,94.62
2022-08-21T17:03:45.945Z,94.77
2022-08-21T17:06:14.281Z,94.31
2022-08-21T17:08:41.614Z,93.86
2022-08-21T17:11:30.693Z,93.58
2022-08-21T17:14:07.043Z,93.86
2022-08-21T17:16:34.679Z,94.35
2022-08-21T17:19:01.589Z,94.34
2022-08-21T17:21:28.567Z,93.89
2022-08-21T17:23:55.636Z,93.89
2022-08-21T17:26:23.509Z,94.05
2022-08-21T17:28:54.626Z,93.98
2022-08-21T17:31:22.399Z,94.29
2022-08-21T17:33:53.058Z,94.54
2022-08-21T17:36:23.550Z,94.16
2022-08-21T17:38:51.458Z,94.34
2022-08-21T17:41:22.602Z,94.48
2022-08-21T17:43:50.158Z,94.98
2022-08-21T17:46:24.878Z,95.95
2022-08-21T17:48:51.965Z,97.70
2022-08-21T17:51:20.394Z,97.04
2022-08-21T17:53:47.542Z,97.71
2022-08-21T17:56:16.578Z,97.92
2022-08-21T17:58:47.554Z,98.53
2022-08-21T18:01:15.131Z,98.84
2022-08-21T18:03:42.513Z,98.55
2022-08-21T18:06:12.278Z,98.34
2022-08-21T18:08:41.574Z,98.21
2022-08-21T18:11:09.498Z,97.38
2022-08-21T18:13:40.071Z,97.27
2022-08-21T18:16:07.418Z,97.54
2022-08-21T18:18:42.393Z,97.39
2022-08-21T18:21:10.353Z,97.52
2022-08-21T18:23:44.316Z,97.60
2022-08-21T18:26:15.194Z,96.86
2022-08-21T18:28:44.361Z,96.18
2022-08-21T18:31:13.093Z,95.83
2022-08-21T18:33:43.671Z,95.69
2022-08-21T18:36:26.422Z,96.40
2022-08-21T18:38:55.191Z,95.68
2022-08-21T18:41:22.934Z,95.31
2022-08-21T18:43:50.427Z,95.14
2022-08-21T18:46:17.574Z,95.19
2022-08-21T18:48:44.701Z,96.11
2022-08-21T18:51:12.466Z,96.49
2022-08-21T18:53:39.599Z,96.77
2022-08-21T18:58:58.473Z,97.67
2022-08-21T19:01:26.471Z,97.69
2022-08-21T19:03:53.469Z,98.01
2022-08-21T19:06:20.483Z,98.34
2022-08-21T19:08:47.566Z,97.62
2022-08-21T19:11:15.855Z,97.70
2022-08-21T19:13:53.372Z,97.37
2022-08-21T19:16:21.848Z,97.92
2022-08-21T19:18:49.208Z,97.47
2022-08-21T19:21:16.592Z,98.12
2022-08-21T19:23:52.888Z,97.43
2022-08-21T19:26:22.959Z,98.02
2022-08-21T19:28:53.920Z,98.31
2022-08-21T19:31:32.559Z,99.48
2022-08-21T19:34:11.806Z,100.00
2022-08-21T19:36:39.180Z,100.00
2022-08-21T19:39:11.148Z,99.65
2022-08-21T19:41:42.684Z,98.90
2022-08-21T19:44:13.359Z,99.52
2022-08-21T19:46:44.502Z,100.00
2022-08-21T19:49:15.498Z,100.00
2022-08-21T19:51:43.067Z,100.00
2022-08-21T19:54:17.346Z,100.00
2022-08-21T19:56:45.511Z,100.00
2022-08-21T19:59:17.624Z,100.00
2022-08-21T20:01:44.977Z,100.00
2022-08-21T20:04:19.490Z,100.00
2022-08-21T20:06:47.107Z,100.00
2022-08-21T20:09:16.460Z,100.00
2022-08-21T20:11:46.668Z,100.00
2022-08-21T20:14:16.860Z,100.00
2022-08-21T20:16:44.546Z,100.00
2022-08-21T20:19:11.613Z,100.00
2022-08-21T20:27:01.739Z,100.00
2022-08-21T20:29:36.036Z,100.00
2022-08-21T20:32:05.586Z,100.00
2022-08-21T20:34:33.918Z,100.00
2022-08-21T20:37:01.371Z,100.00
2022-08-21T20:39:28.478Z,100.00
2022-08-21T20:41:56.383Z,100.00
2022-08-21T20:44:29.644Z,100.00
2022-08-21T20:46:58.678Z,100.00
2022-08-21T20:49:32.836Z,100.00
2022-08-21T20:52:01.218Z,100.00
2022-08-21T20:54:31.097Z,100.00
2022-08-21T20:57:01.890Z,100.00
2022-08-21T20:59:34.883Z,100.00
2022-08-21T21:02:16.332Z,100.00
2022-08-21T21:07:48.351Z,100.00
2022-08-21T21:10:27.110Z,100.00
2022-08-21T21:13:03.627Z,100.00
2022-08-21T21:15:33.331Z,100.00
2022-08-21T21:18:14.141Z,100.00
2022-08-21T21:21:07.385Z,100.00
2022-08-21T21:23:49.795Z,100.00
2022-08-21T21:26:29.119Z,100.00
2022-08-21T21:29:10.656Z,100.00
2022-08-21T21:31:38.337Z,100.00
2022-08-21T21:34:05.763Z,100.00
2022-08-21T21:37:03.841Z,100.00
2022-08-21T21:39:56.418Z,100.00
2022-08-21T21:42:30.162Z,100.00
2022-08-21T21:45:27.486Z,100.00
2022-08-21T21:48:28.172Z,100.00
2022-08-21T21:51:12.092Z,100.00
2022-08-21T21:54:11.358Z,100.00
2022-08-21T21:57:03.077Z,100.00
2022-08-21T21:59:57.843Z,100.00
2022-08-21T22:02:34.959Z,100.00
2022-08-21T22:05:38.342Z,100.00
2022-08-21T22:08:20.270Z,100.00
2022-08-21T22:10:48.729Z,100.00
2022-08-21T22:13:38.541Z,100.00
2022-08-21T22:16:07.679Z,100.00
2022-08-21T22:18:47.780Z,100.00
2022-08-21T22:21:36.431Z,100.00
2022-08-21T22:24:12.918Z,100.00
2022-08-21T22:26:44.194Z,100.00
2022-08-21T22:29:16.852Z,100.00
2022-08-21T22:31:59.799Z,100.00
2022-08-21T22:34:28.902Z,100.00
2022-08-21T22:37:02.931Z,100.00
2022-08-21T22:39:39.268Z,100.00
2022-08-21T22:42:22.017Z,100.00
2022-08-21T22:44:54.641Z,100.00
2022-08-21T22:47:26.264Z,100.00
2022-08-21T22:49:55.722Z,100.00
2022-08-21T22:52:29.209Z,100.00
2022-08-21T22:55:01.441Z,100.00
2022-08-21T22:57:34.783Z,100.00
2022-08-21T23:00:40.424Z,100.00
2022-08-21T23:03:16.494Z,100.00
2022-08-21T23:05:44.507Z,100.00
2022-08-21T23:08:24.264Z,100.00
2022-08-21T23:11:01.486Z,100.00
2022-08-21T23:13:38.027Z,100.00
2022-08-21T23:16:36.436Z,100.00
2022-08-21T23:19:22.172Z,100.00
2022-08-21T23:22:10.443Z,100.00
2022-08-21T23:24:53.835Z,100.00
2022-08-21T23:27:33.124Z,100.00
2022-08-21T23:30:43.110Z,100.00
2022-08-21T23:33:22.080Z,100.00
2022-08-21T23:36:22.614Z,100.00
2022-08-21T23:39:11.225Z,100.00
2022-08-21T23:41:59.017Z,100.00
2022-08-21T23:44:41.134Z,100.00
2022-08-21T23:47:40.893Z,100.00
2022-08-21T23:50:34.803Z,100.00
2022-08-21T23:53:33.665Z,100.00
2022-08-21T23:56:19.192Z,100.00
2022-08-21T23:58:58.265Z,100.00
